sensor_id;sensor_type;location;lat;lon;timestamp;P1;durP1;ratioP1;P2;durP2;ratioP2
7013;SDS011;3547;50.774;12.918;2023-04-06T00:01:35;2.93;;;2.63;;
7013;SDS011;3547;50.774;12.918;2023-04-06T00:04:02;3.83;;;2.60;;
7013;SDS011;3547;50.774;12.918;2023-04-06T00:06:29;3.03;;;2.20;;
7013;SDS011;3547;50.774;12.918;2023-04-06T00:08:59;3.37;;;2.37;;
7013;SDS011;3547;50.774;12.918;2023-04-06T00:11:28;4.00;;;2.67;;
7013;SDS011;3547;50.774;12.918;2023-04-06T00:13:55;2.77;;;2.20;;
7013;SDS011;3547;50.774;12.918;2023-04-06T00:16:21;3.27;;;2.50;;
7013;SDS011;3547;50.774;12.918;2023-04-06T00:18:47;3.30;;;2.70;;
7013;SDS011;3547;50.774;12.918;2023-04-06T00:21:13;5.67;;;2.77;;
7013;SDS011;3547;50.774;12.918;2023-04-06T00:23:43;2.70;;;2.33;;
7013;SDS011;3547;50.774;12.918;2023-04-06T00:26:09;3.33;;;2.53;;
7013;SDS011;3547;50.774;12.918;2023-04-06T00:28:36;4.23;;;2.70;;
7013;SDS011;3547;50.774;12.918;2023-04-06T00:31:03;3.63;;;2.60;;
7013;SDS011;3547;50.774;12.918;2023-04-06T00:33:30;4.03;;;2.40;;
7013;SDS011;3547;50.774;12.918;2023-04-06T00:35:56;3.83;;;2.90;;
7013;SDS011;3547;50.774;12.918;2023-04-06T00:38:25;3.73;;;2.60;;
7013;SDS011;3547;50.774;12.918;2023-04-06T00:40:52;2.93;;;2.50;;
7013;SDS011;3547;50.774;12.918;2023-04-06T00:43:18;3.40;;;2.60;;
7013;SDS011;3547;50.774;12.918;2023-04-06T00:45:44;3.50;;;2.87;;
7013;SDS011;3547;50.774;12.918;2023-04-06T00:48:10;3.70;;;2.90;;
7013;SDS011;3547;50.774;12.918;2023-04-06T00:50:36;4.90;;;2.67;;
7013;SDS011;3547;50.774;12.918;2023-04-06T00:53:03;4.87;;;2.70;;
7013;SDS011;3547;50.774;12.918;2023-04-06T00:55:29;3.33;;;2.70;;
7013;SDS011;3547;50.774;12.918;2023-04-06T00:57:58;5.57;;;2.70;;
7013;SDS011;3547;50.774;12.918;2023-04-06T01:00:28;4.70;;;2.63;;
7013;SDS011;3547;50.774;12.918;2023-04-06T01:02:54;2.80;;;2.20;;
7013;SDS011;3547;50.774;12.918;2023-04-06T01:05:20;4.10;;;3.07;;
7013;SDS011;3547;50.774;12.918;2023-04-06T01:07:58;3.30;;;2.50;;
7013;SDS011;3547;50.774;12.918;2023-04-06T01:10:25;3.40;;;2.50;;
7013;SDS011;3547;50.774;12.918;2023-04-06T01:12:52;2.87;;;2.50;;
7013;SDS011;3547;50.774;12.918;2023-04-06T01:15:19;3.50;;;2.90;;
7013;SDS011;3547;50.774;12.918;2023-04-06T01:17:46;4.90;;;3.50;;
7013;SDS011;3547;50.774;12.918;2023-04-06T01:20:12;3.43;;;2.50;;
7013;SDS011;3547;50.774;12.918;2023-04-06T01:22:39;4.43;;;2.77;;
7013;SDS011;3547;50.774;12.918;2023-04-06T01:25:05;5.60;;;3.03;;
7013;SDS011;3547;50.774;12.918;2023-04-06T01:27:32;6.47;;;2.97;;
7013;SDS011;3547;50.774;12.918;2023-04-06T01:29:58;4.07;;;2.70;;
7013;SDS011;3547;50.774;12.918;2023-04-06T01:32:25;2.87;;;2.53;;
7013;SDS011;3547;50.774;12.918;2023-04-06T01:34:51;3.10;;;2.77;;
7013;SDS011;3547;50.774;12.918;2023-04-06T01:37:17;3.13;;;2.50;;
7013;SDS011;3547;50.774;12.918;2023-04-06T01:39:43;3.33;;;2.67;;
7013;SDS011;3547;50.774;12.918;2023-04-06T01:42:10;5.47;;;2.90;;
7013;SDS011;3547;50.774;12.918;2023-04-06T01:44:36;2.90;;;2.60;;
7013;SDS011;3547;50.774;12.918;2023-04-06T01:47:04;4.10;;;2.80;;
7013;SDS011;3547;50.774;12.918;2023-04-06T01:53:35;3.97;;;3.13;;
7013;SDS011;3547;50.774;12.918;2023-04-06T01:56:01;4.13;;;2.73;;
7013;SDS011;3547;50.774;12.918;2023-04-06T01:58:30;6.17;;;2.70;;
7013;SDS011;3547;50.774;12.918;2023-04-06T02:00:57;4.80;;;3.00;;
7013;SDS011;3547;50.774;12.918;2023-04-06T02:14:58;3.67;;;2.77;;
7013;SDS011;3547;50.774;12.918;2023-04-06T02:17:24;5.03;;;2.77;;
7013;SDS011;3547;50.774;12.918;2023-04-06T02:19:56;3.27;;;2.90;;
7013;SDS011;3547;50.774;12.918;2023-04-06T02:27:38;4.07;;;3.17;;
7013;SDS011;3547;50.774;12.918;2023-04-06T02:30:59;3.90;;;3.27;;
7013;SDS011;3547;50.774;12.918;2023-04-06T02:33:25;2.87;;;2.60;;
7013;SDS011;3547;50.774;12.918;2023-04-06T02:35:51;4.60;;;3.17;;
7013;SDS011;3547;50.774;12.918;2023-04-06T02:38:17;4.17;;;3.30;;
7013;SDS011;3547;50.774;12.918;2023-04-06T02:40:44;4.10;;;3.30;;
7013;SDS011;3547;50.774;12.918;2023-04-06T02:43:10;3.47;;;2.43;;
7013;SDS011;3547;50.774;12.918;2023-04-06T02:45:36;3.67;;;2.93;;
7013;SDS011;3547;50.774;12.918;2023-04-06T02:48:02;3.93;;;3.03;;
7013;SDS011;3547;50.774;12.918;2023-04-06T02:50:29;3.50;;;2.97;;
7013;SDS011;3547;50.774;12.918;2023-04-06T02:52:55;4.67;;;3.33;;
7013;SDS011;3547;50.774;12.918;2023-04-06T02:55:21;5.37;;;3.63;;
7013;SDS011;3547;50.774;12.918;2023-04-06T02:57:47;4.13;;;2.97;;
7013;SDS011;3547;50.774;12.918;2023-04-06T03:00:13;5.77;;;3.50;;
7013;SDS011;3547;50.774;12.918;2023-04-06T03:02:40;3.07;;;2.77;;
7013;SDS011;3547;50.774;12.918;2023-04-06T03:05:06;3.17;;;2.80;;
7013;SDS011;3547;50.774;12.918;2023-04-06T03:07:32;5.10;;;3.23;;
7013;SDS011;3547;50.774;12.918;2023-04-06T03:09:58;5.97;;;3.33;;
7013;SDS011;3547;50.774;12.918;2023-04-06T03:12:24;4.40;;;2.80;;
7013;SDS011;3547;50.774;12.918;2023-04-06T03:14:51;5.13;;;3.30;;
7013;SDS011;3547;50.774;12.918;2023-04-06T03:17:17;6.60;;;3.60;;
7013;SDS011;3547;50.774;12.918;2023-04-06T03:19:43;3.43;;;3.13;;
7013;SDS011;3547;50.774;12.918;2023-04-06T03:22:09;4.20;;;3.37;;
7013;SDS011;3547;50.774;12.918;2023-04-06T03:27:58;2.77;;;2.50;;
7013;SDS011;3547;50.774;12.918;2023-04-06T03:30:24;4.83;;;3.47;;
7013;SDS011;3547;50.774;12.918;2023-04-06T03:32:57;6.83;;;3.50;;
7013;SDS011;3547;50.774;12.918;2023-04-06T03:36:20;4.43;;;3.43;;
7013;SDS011;3547;50.774;12.918;2023-04-06T03:38:47;5.50;;;3.67;;
7013;SDS011;3547;50.774;12.918;2023-04-06T03:41:14;7.33;;;3.67;;
7013;SDS011;3547;50.774;12.918;2023-04-06T03:43:40;4.73;;;3.20;;
7013;SDS011;3547;50.774;12.918;2023-04-06T03:46:09;4.60;;;3.47;;
7013;SDS011;3547;50.774;12.918;2023-04-06T03:48:45;8.30;;;3.33;;
7013;SDS011;3547;50.774;12.918;2023-04-06T03:51:14;3.60;;;2.93;;
7013;SDS011;3547;50.774;12.918;2023-04-06T03:53:40;4.27;;;2.90;;
7013;SDS011;3547;50.774;12.918;2023-04-06T03:59:30;4.20;;;3.40;;
7013;SDS011;3547;50.774;12.918;2023-04-06T04:01:57;4.67;;;3.20;;
7013;SDS011;3547;50.774;12.918;2023-04-06T04:04:29;5.57;;;3.07;;
7013;SDS011;3547;50.774;12.918;2023-04-06T04:06:55;4.47;;;3.33;;
7013;SDS011;3547;50.774;12.918;2023-04-06T04:09:21;4.20;;;3.50;;
7013;SDS011;3547;50.774;12.918;2023-04-06T04:11:48;4.13;;;3.07;;
7013;SDS011;3547;50.774;12.918;2023-04-06T04:15:11;4.03;;;3.20;;
7013;SDS011;3547;50.774;12.918;2023-04-06T04:17:38;6.27;;;3.43;;
7013;SDS011;3547;50.774;12.918;2023-04-06T04:20:04;6.23;;;3.53;;
7013;SDS011;3547;50.774;12.918;2023-04-06T04:22:31;4.93;;;3.20;;
7013;SDS011;3547;50.774;12.918;2023-04-06T04:24:59;4.13;;;2.83;;
7013;SDS011;3547;50.774;12.918;2023-04-06T04:27:28;4.40;;;3.00;;
7013;SDS011;3547;50.774;12.918;2023-04-06T04:29:54;3.90;;;3.27;;
7013;SDS011;3547;50.774;12.918;2023-04-06T04:32:23;4.23;;;3.77;;
7013;SDS011;3547;50.774;12.918;2023-04-06T04:34:53;5.03;;;3.47;;
7013;SDS011;3547;50.774;12.918;2023-04-06T04:37:19;8.77;;;3.63;;
7013;SDS011;3547;50.774;12.918;2023-04-06T04:39:45;3.93;;;3.27;;
7013;SDS011;3547;50.774;12.918;2023-04-06T04:42:11;3.17;;;2.80;;
7013;SDS011;3547;50.774;12.918;2023-04-06T04:44:39;3.73;;;3.13;;
7013;SDS011;3547;50.774;12.918;2023-04-06T04:47:05;4.90;;;3.90;;
7013;SDS011;3547;50.774;12.918;2023-04-06T04:49:31;6.50;;;3.33;;
7013;SDS011;3547;50.774;12.918;2023-04-06T04:51:57;5.07;;;3.57;;
7013;SDS011;3547;50.774;12.918;2023-04-06T04:54:23;6.97;;;4.67;;
7013;SDS011;3547;50.774;12.918;2023-04-06T04:56:50;5.47;;;4.33;;
7013;SDS011;3547;50.774;12.918;2023-04-06T04:59:17;6.10;;;4.43;;
7013;SDS011;3547;50.774;12.918;2023-04-06T05:01:43;4.07;;;3.67;;
7013;SDS011;3547;50.774;12.918;2023-04-06T05:04:09;4.20;;;3.70;;
7013;SDS011;3547;50.774;12.918;2023-04-06T05:06:35;6.03;;;3.67;;
7013;SDS011;3547;50.774;12.918;2023-04-06T05:09:01;5.63;;;4.10;;
7013;SDS011;3547;50.774;12.918;2023-04-06T05:11:27;4.23;;;3.10;;
7013;SDS011;3547;50.774;12.918;2023-04-06T05:13:56;3.13;;;2.63;;
7013;SDS011;3547;50.774;12.918;2023-04-06T05:16:23;3.57;;;2.97;;
7013;SDS011;3547;50.774;12.918;2023-04-06T05:18:50;5.43;;;3.00;;
7013;SDS011;3547;50.774;12.918;2023-04-06T05:21:19;5.83;;;3.60;;
7013;SDS011;3547;50.774;12.918;2023-04-06T05:23:45;4.67;;;3.50;;
7013;SDS011;3547;50.774;12.918;2023-04-06T05:26:13;4.03;;;3.20;;
7013;SDS011;3547;50.774;12.918;2023-04-06T05:28:53;5.60;;;3.80;;
7013;SDS011;3547;50.774;12.918;2023-04-06T05:31:20;8.87;;;4.17;;
7013;SDS011;3547;50.774;12.918;2023-04-06T05:33:46;4.73;;;3.20;;
7013;SDS011;3547;50.774;12.918;2023-04-06T05:36:13;5.10;;;3.30;;
7013;SDS011;3547;50.774;12.918;2023-04-06T05:38:40;6.57;;;3.27;;
7013;SDS011;3547;50.774;12.918;2023-04-06T05:41:06;4.53;;;3.30;;
7013;SDS011;3547;50.774;12.918;2023-04-06T05:43:32;4.00;;;3.60;;
7013;SDS011;3547;50.774;12.918;2023-04-06T05:45:58;4.37;;;3.83;;
7013;SDS011;3547;50.774;12.918;2023-04-06T05:48:25;5.40;;;3.53;;
7013;SDS011;3547;50.774;12.918;2023-04-06T05:50:52;6.87;;;3.37;;
7013;SDS011;3547;50.774;12.918;2023-04-06T05:53:19;4.67;;;3.70;;
7013;SDS011;3547;50.774;12.918;2023-04-06T05:55:46;3.37;;;3.07;;
7013;SDS011;3547;50.774;12.918;2023-04-06T05:58:13;6.07;;;3.83;;
7013;SDS011;3547;50.774;12.918;2023-04-06T06:00:39;6.20;;;3.87;;
7013;SDS011;3547;50.774;12.918;2023-04-06T06:03:05;5.10;;;3.73;;
7013;SDS011;3547;50.774;12.918;2023-04-06T06:05:34;3.93;;;3.43;;
7013;SDS011;3547;50.774;12.918;2023-04-06T06:08:03;5.50;;;3.53;;
7013;SDS011;3547;50.774;12.918;2023-04-06T06:10:29;5.37;;;3.63;;
7013;SDS011;3547;50.774;12.918;2023-04-06T06:12:55;4.70;;;3.97;;
7013;SDS011;3547;50.774;12.918;2023-04-06T06:15:21;5.30;;;4.00;;
7013;SDS011;3547;50.774;12.918;2023-04-06T06:17:48;6.03;;;3.80;;
7013;SDS011;3547;50.774;12.918;2023-04-06T06:20:14;3.57;;;3.23;;
7013;SDS011;3547;50.774;12.918;2023-04-06T06:22:43;4.43;;;3.27;;
7013;SDS011;3547;50.774;12.918;2023-04-06T06:25:13;7.47;;;4.70;;
7013;SDS011;3547;50.774;12.918;2023-04-06T06:27:39;5.17;;;3.17;;
7013;SDS011;3547;50.774;12.918;2023-04-06T06:30:05;3.73;;;3.23;;
7013;SDS011;3547;50.774;12.918;2023-04-06T06:32:32;5.67;;;4.03;;
7013;SDS011;3547;50.774;12.918;2023-04-06T06:34:58;4.40;;;3.23;;
7013;SDS011;3547;50.774;12.918;2023-04-06T06:37:24;5.37;;;4.30;;
7013;SDS011;3547;50.774;12.918;2023-04-06T06:39:51;7.17;;;4.10;;
7013;SDS011;3547;50.774;12.918;2023-04-06T06:42:17;5.37;;;4.23;;
7013;SDS011;3547;50.774;12.918;2023-04-06T06:44:43;5.27;;;4.47;;
7013;SDS011;3547;50.774;12.918;2023-04-06T06:47:09;6.17;;;4.20;;
7013;SDS011;3547;50.774;12.918;2023-04-06T06:49:35;6.73;;;4.50;;
7013;SDS011;3547;50.774;12.918;2023-04-06T06:52:02;6.40;;;4.47;;
7013;SDS011;3547;50.774;12.918;2023-04-06T06:54:28;4.80;;;4.00;;
7013;SDS011;3547;50.774;12.918;2023-04-06T06:56:54;5.47;;;3.90;;
7013;SDS011;3547;50.774;12.918;2023-04-06T06:59:20;4.93;;;4.20;;
7013;SDS011;3547;50.774;12.918;2023-04-06T07:01:47;5.17;;;4.67;;
7013;SDS011;3547;50.774;12.918;2023-04-06T07:04:13;7.60;;;4.47;;
7013;SDS011;3547;50.774;12.918;2023-04-06T07:06:39;4.93;;;3.90;;
7013;SDS011;3547;50.774;12.918;2023-04-06T07:09:06;6.27;;;3.63;;
7013;SDS011;3547;50.774;12.918;2023-04-06T07:11:32;8.40;;;3.80;;
7013;SDS011;3547;50.774;12.918;2023-04-06T07:13:58;4.23;;;3.10;;
7013;SDS011;3547;50.774;12.918;2023-04-06T07:16:24;4.57;;;4.13;;
7013;SDS011;3547;50.774;12.918;2023-04-06T07:18:50;5.70;;;3.53;;
7013;SDS011;3547;50.774;12.918;2023-04-06T07:21:19;3.47;;;3.17;;
7013;SDS011;3547;50.774;12.918;2023-04-06T07:23:46;3.77;;;3.03;;
7013;SDS011;3547;50.774;12.918;2023-04-06T07:26:13;3.60;;;2.90;;
7013;SDS011;3547;50.774;12.918;2023-04-06T07:28:39;6.33;;;3.30;;
7013;SDS011;3547;50.774;12.918;2023-04-06T07:31:07;4.47;;;3.50;;
7013;SDS011;3547;50.774;12.918;2023-04-06T07:33:34;5.73;;;3.17;;
7013;SDS011;3547;50.774;12.918;2023-04-06T07:36:00;3.20;;;2.90;;
7013;SDS011;3547;50.774;12.918;2023-04-06T07:38:26;5.10;;;2.90;;
7013;SDS011;3547;50.774;12.918;2023-04-06T07:40:52;4.83;;;2.70;;
7013;SDS011;3547;50.774;12.918;2023-04-06T07:43:19;3.03;;;2.60;;
7013;SDS011;3547;50.774;12.918;2023-04-06T07:45:45;4.83;;;3.03;;
7013;SDS011;3547;50.774;12.918;2023-04-06T07:48:11;2.37;;;2.17;;
7013;SDS011;3547;50.774;12.918;2023-04-06T07:50:37;3.87;;;2.60;;
7013;SDS011;3547;50.774;12.918;2023-04-06T07:53:08;5.17;;;3.23;;
7013;SDS011;3547;50.774;12.918;2023-04-06T07:55:34;2.30;;;2.10;;
7013;SDS011;3547;50.774;12.918;2023-04-06T07:58:00;3.10;;;2.50;;
7013;SDS011;3547;50.774;12.918;2023-04-06T08:00:28;5.67;;;4.67;;
7013;SDS011;3547;50.774;12.918;2023-04-06T08:02:59;3.30;;;3.00;;
7013;SDS011;3547;50.774;12.918;2023-04-06T08:05:26;3.77;;;2.40;;
7013;SDS011;3547;50.774;12.918;2023-04-06T08:07:52;2.70;;;2.37;;
7013;SDS011;3547;50.774;12.918;2023-04-06T08:10:18;4.93;;;2.43;;
7013;SDS011;3547;50.774;12.918;2023-04-06T08:12:45;2.87;;;2.23;;
7013;SDS011;3547;50.774;12.918;2023-04-06T08:15:11;2.70;;;2.10;;
7013;SDS011;3547;50.774;12.918;2023-04-06T08:17:37;5.13;;;2.60;;
7013;SDS011;3547;50.774;12.918;2023-04-06T08:20:06;4.90;;;2.93;;
7013;SDS011;3547;50.774;12.918;2023-04-06T08:22:32;2.57;;;2.07;;
7013;SDS011;3547;50.774;12.918;2023-04-06T08:24:59;3.00;;;2.53;;
7013;SDS011;3547;50.774;12.918;2023-04-06T08:27:25;3.33;;;2.57;;
7013;SDS011;3547;50.774;12.918;2023-04-06T08:29:51;6.40;;;2.40;;
7013;SDS011;3547;50.774;12.918;2023-04-06T08:32:17;2.80;;;2.57;;
7013;SDS011;3547;50.774;12.918;2023-04-06T08:34:46;2.67;;;2.47;;
7013;SDS011;3547;50.774;12.918;2023-04-06T08:37:13;3.67;;;2.83;;
7013;SDS011;3547;50.774;12.918;2023-04-06T08:39:39;2.43;;;2.23;;
7013;SDS011;3547;50.774;12.918;2023-04-06T08:42:10;3.40;;;2.80;;
7013;SDS011;3547;50.774;12.918;2023-04-06T08:44:44;4.33;;;3.00;;
7013;SDS011;3547;50.774;12.918;2023-04-06T08:47:12;2.83;;;2.63;;
7013;SDS011;3547;50.774;12.918;2023-04-06T08:49:38;2.70;;;2.50;;
7013;SDS011;3547;50.774;12.918;2023-04-06T08:52:07;3.70;;;3.00;;
7013;SDS011;3547;50.774;12.918;2023-04-06T08:54:36;5.87;;;2.87;;
7013;SDS011;3547;50.774;12.918;2023-04-06T08:57:03;3.97;;;2.70;;
7013;SDS011;3547;50.774;12.918;2023-04-06T08:59:31;3.23;;;1.97;;
7013;SDS011;3547;50.774;12.918;2023-04-06T09:01:57;4.03;;;2.93;;
7013;SDS011;3547;50.774;12.918;2023-04-06T09:04:28;2.90;;;2.60;;
7013;SDS011;3547;50.774;12.918;2023-04-06T09:06:54;2.77;;;2.03;;
7013;SDS011;3547;50.774;12.918;2023-04-06T09:09:20;2.57;;;2.37;;
7013;SDS011;3547;50.774;12.918;2023-04-06T09:11:47;2.73;;;2.53;;
7013;SDS011;3547;50.774;12.918;2023-04-06T09:14:16;3.40;;;2.73;;
7013;SDS011;3547;50.774;12.918;2023-04-06T09:16:43;4.23;;;2.20;;
7013;SDS011;3547;50.774;12.918;2023-04-06T09:19:11;5.57;;;2.47;;
7013;SDS011;3547;50.774;12.918;2023-04-06T09:21:37;5.47;;;2.47;;
7013;SDS011;3547;50.774;12.918;2023-04-06T09:24:06;3.27;;;2.40;;
7013;SDS011;3547;50.774;12.918;2023-04-06T09:26:43;3.50;;;2.47;;
7013;SDS011;3547;50.774;12.918;2023-04-06T09:29:25;4.73;;;2.20;;
7013;SDS011;3547;50.774;12.918;2023-04-06T09:32:01;2.47;;;2.20;;
7013;SDS011;3547;50.774;12.918;2023-04-06T09:34:28;3.53;;;2.37;;
7013;SDS011;3547;50.774;12.918;2023-04-06T09:36:55;3.17;;;2.43;;
7013;SDS011;3547;50.774;12.918;2023-04-06T09:39:21;2.70;;;1.93;;
7013;SDS011;3547;50.774;12.918;2023-04-06T09:41:51;3.10;;;1.87;;
7013;SDS011;3547;50.774;12.918;2023-04-06T09:44:19;2.57;;;2.10;;
7013;SDS011;3547;50.774;12.918;2023-04-06T09:46:47;3.13;;;2.43;;
7013;SDS011;3547;50.774;12.918;2023-04-06T09:49:13;3.13;;;2.00;;
7013;SDS011;3547;50.774;12.918;2023-04-06T09:51:41;1.93;;;1.80;;
7013;SDS011;3547;50.774;12.918;2023-04-06T09:57:50;2.40;;;2.17;;
7013;SDS011;3547;50.774;12.918;2023-04-06T10:00:44;3.47;;;2.20;;
7013;SDS011;3547;50.774;12.918;2023-04-06T10:06:13;5.53;;;2.30;;
7013;SDS011;3547;50.774;12.918;2023-04-06T10:08:43;3.50;;;2.60;;
7013;SDS011;3547;50.774;12.918;2023-04-06T10:11:11;2.53;;;2.07;;
7013;SDS011;3547;50.774;12.918;2023-04-06T10:13:37;2.63;;;2.30;;
7013;SDS011;3547;50.774;12.918;2023-04-06T10:16:10;2.13;;;1.90;;
7013;SDS011;3547;50.774;12.918;2023-04-06T10:18:44;2.17;;;1.90;;
7013;SDS011;3547;50.774;12.918;2023-04-06T10:21:18;3.07;;;2.57;;
7013;SDS011;3547;50.774;12.918;2023-04-06T10:23:54;3.47;;;2.50;;
7013;SDS011;3547;50.774;12.918;2023-04-06T10:26:32;3.90;;;2.67;;
7013;SDS011;3547;50.774;12.918;2023-04-06T10:29:02;2.97;;;2.23;;
7013;SDS011;3547;50.774;12.918;2023-04-06T10:31:30;3.33;;;2.43;;
7013;SDS011;3547;50.774;12.918;2023-04-06T10:33:57;2.80;;;2.53;;
7013;SDS011;3547;50.774;12.918;2023-04-06T10:36:27;3.53;;;2.57;;
7013;SDS011;3547;50.774;12.918;2023-04-06T10:38:58;3.17;;;2.47;;
7013;SDS011;3547;50.774;12.918;2023-04-06T10:41:42;3.80;;;2.03;;
7013;SDS011;3547;50.774;12.918;2023-04-06T10:44:23;3.57;;;2.40;;
7013;SDS011;3547;50.774;12.918;2023-04-06T10:46:53;5.13;;;2.57;;
7013;SDS011;3547;50.774;12.918;2023-04-06T10:49:20;2.37;;;2.17;;
7013;SDS011;3547;50.774;12.918;2023-04-06T10:51:51;3.60;;;2.83;;
7013;SDS011;3547;50.774;12.918;2023-04-06T10:59:30;3.13;;;2.50;;
7013;SDS011;3547;50.774;12.918;2023-04-06T11:01:58;6.07;;;3.40;;
7013;SDS011;3547;50.774;12.918;2023-04-06T11:04:24;7.90;;;2.63;;
7013;SDS011;3547;50.774;12.918;2023-04-06T11:06:54;3.13;;;2.80;;
7013;SDS011;3547;50.774;12.918;2023-04-06T11:09:27;2.50;;;2.30;;
7013;SDS011;3547;50.774;12.918;2023-04-06T11:11:57;3.27;;;2.80;;
7013;SDS011;3547;50.774;12.918;2023-04-06T11:14:23;3.20;;;2.47;;
7013;SDS011;3547;50.774;12.918;2023-04-06T11:16:49;2.57;;;2.27;;
7013;SDS011;3547;50.774;12.918;2023-04-06T11:19:16;3.10;;;2.67;;
7013;SDS011;3547;50.774;12.918;2023-04-06T11:21:47;2.83;;;2.37;;
7013;SDS011;3547;50.774;12.918;2023-04-06T11:26:48;2.30;;;2.10;;
7013;SDS011;3547;50.774;12.918;2023-04-06T11:29:26;3.53;;;2.47;;
7013;SDS011;3547;50.774;12.918;2023-04-06T11:32:03;5.10;;;3.20;;
7013;SDS011;3547;50.774;12.918;2023-04-06T11:34:30;3.20;;;2.90;;
7013;SDS011;3547;50.774;12.918;2023-04-06T11:36:59;2.63;;;2.40;;
7013;SDS011;3547;50.774;12.918;2023-04-06T11:39:28;2.67;;;2.30;;
7013;SDS011;3547;50.774;12.918;2023-04-06T11:41:57;2.23;;;2.03;;
7013;SDS011;3547;50.774;12.918;2023-04-06T11:44:29;3.33;;;2.43;;
7013;SDS011;3547;50.774;12.918;2023-04-06T11:46:57;2.83;;;2.10;;
7013;SDS011;3547;50.774;12.918;2023-04-06T11:49:27;4.83;;;2.63;;
7013;SDS011;3547;50.774;12.918;2023-04-06T11:51:54;2.30;;;2.10;;
7013;SDS011;3547;50.774;12.918;2023-04-06T11:54:34;3.13;;;2.10;;
7013;SDS011;3547;50.774;12.918;2023-04-06T11:57:01;3.70;;;2.40;;
7013;SDS011;3547;50.774;12.918;2023-04-06T11:59:29;3.97;;;2.40;;
7013;SDS011;3547;50.774;12.918;2023-04-06T12:01:59;5.20;;;2.37;;
7013;SDS011;3547;50.774;12.918;2023-04-06T12:04:26;2.70;;;2.10;;
7013;SDS011;3547;50.774;12.918;2023-04-06T12:33:24;2.13;;;1.92;;
7013;SDS011;3547;50.774;12.918;2023-04-06T12:35:58;3.05;;;2.47;;
7013;SDS011;3547;50.774;12.918;2023-04-06T12:38:25;2.60;;;1.77;;
7013;SDS011;3547;50.774;12.918;2023-04-06T12:40:52;2.33;;;1.98;;
7013;SDS011;3547;50.774;12.918;2023-04-06T12:43:18;3.80;;;2.65;;
7013;SDS011;3547;50.774;12.918;2023-04-06T12:45:44;2.28;;;2.08;;
7013;SDS011;3547;50.774;12.918;2023-04-06T12:48:11;2.42;;;2.22;;
7013;SDS011;3547;50.774;12.918;2023-04-06T12:50:37;3.63;;;2.30;;
7013;SDS011;3547;50.774;12.918;2023-04-06T12:53:03;2.33;;;2.10;;
7013;SDS011;3547;50.774;12.918;2023-04-06T12:55:30;3.10;;;2.10;;
7013;SDS011;3547;50.774;12.918;2023-04-06T12:57:56;2.40;;;1.83;;
7013;SDS011;3547;50.774;12.918;2023-04-06T13:00:23;5.03;;;2.38;;
7013;SDS011;3547;50.774;12.918;2023-04-06T13:02:49;2.75;;;2.53;;
7013;SDS011;3547;50.774;12.918;2023-04-06T13:05:15;3.22;;;2.88;;
7013;SDS011;3547;50.774;12.918;2023-04-06T13:07:44;2.53;;;2.13;;
7013;SDS011;3547;50.774;12.918;2023-04-06T13:10:11;2.38;;;2.17;;
7013;SDS011;3547;50.774;12.918;2023-04-06T13:12:37;2.22;;;2.03;;
7013;SDS011;3547;50.774;12.918;2023-04-06T13:15:03;2.30;;;2.10;;
7013;SDS011;3547;50.774;12.918;2023-04-06T13:17:30;2.33;;;2.13;;
7013;SDS011;3547;50.774;12.918;2023-04-06T13:19:56;2.78;;;2.47;;
7013;SDS011;3547;50.774;12.918;2023-04-06T13:27:35;3.58;;;2.50;;
7013;SDS011;3547;50.774;12.918;2023-04-06T13:32:57;5.22;;;2.15;;
7013;SDS011;3547;50.774;12.918;2023-04-06T13:35:24;4.15;;;2.10;;
7013;SDS011;3547;50.774;12.918;2023-04-06T13:37:50;2.83;;;2.33;;
7013;SDS011;3547;50.774;12.918;2023-04-06T13:40:18;2.80;;;1.90;;
7013;SDS011;3547;50.774;12.918;2023-04-06T13:42:44;2.47;;;2.22;;
7013;SDS011;3547;50.774;12.918;2023-04-06T13:45:11;2.25;;;2.05;;
7013;SDS011;3547;50.774;12.918;2023-04-06T13:47:37;2.20;;;1.95;;
7013;SDS011;3547;50.774;12.918;2023-04-06T13:50:04;2.25;;;2.10;;
7013;SDS011;3547;50.774;12.918;2023-04-06T13:52:32;2.72;;;2.17;;
7013;SDS011;3547;50.774;12.918;2023-04-06T13:54:58;2.47;;;2.28;;
7013;SDS011;3547;50.774;12.918;2023-04-06T13:57:24;3.05;;;2.03;;
7013;SDS011;3547;50.774;12.918;2023-04-06T13:59:50;2.42;;;2.10;;
7013;SDS011;3547;50.774;12.918;2023-04-06T14:02:16;2.47;;;2.28;;
7013;SDS011;3547;50.774;12.918;2023-04-06T14:04:43;2.35;;;2.15;;
7013;SDS011;3547;50.774;12.918;2023-04-06T14:07:09;2.47;;;2.05;;
7013;SDS011;3547;50.774;12.918;2023-04-06T14:09:36;3.85;;;1.98;;
7013;SDS011;3547;50.774;12.918;2023-04-06T14:12:02;2.72;;;2.17;;
7013;SDS011;3547;50.774;12.918;2023-04-06T14:14:30;4.63;;;2.53;;
7013;SDS011;3547;50.774;12.918;2023-04-06T14:17:04;2.97;;;2.15;;
7013;SDS011;3547;50.774;12.918;2023-04-06T14:19:31;3.15;;;2.10;;
7013;SDS011;3547;50.774;12.918;2023-04-06T14:21:58;3.83;;;2.83;;
7013;SDS011;3547;50.774;12.918;2023-04-06T14:24:27;2.97;;;2.28;;
7013;SDS011;3547;50.774;12.918;2023-04-06T14:26:53;5.45;;;3.60;;
7013;SDS011;3547;50.774;12.918;2023-04-06T14:29:19;3.28;;;2.97;;
7013;SDS011;3547;50.774;12.918;2023-04-06T14:31:46;3.47;;;2.55;;
7013;SDS011;3547;50.774;12.918;2023-04-06T14:34:13;2.20;;;1.95;;
7013;SDS011;3547;50.774;12.918;2023-04-06T14:36:41;2.55;;;2.35;;
7013;SDS011;3547;50.774;12.918;2023-04-06T14:39:07;2.03;;;1.85;;
7013;SDS011;3547;50.774;12.918;2023-04-06T14:41:33;3.28;;;2.65;;
7013;SDS011;3547;50.774;12.918;2023-04-06T14:44:00;2.63;;;2.40;;
7013;SDS011;3547;50.774;12.918;2023-04-06T14:49:16;2.20;;;2.00;;
7013;SDS011;3547;50.774;12.918;2023-04-06T14:51:47;4.18;;;2.88;;
7013;SDS011;3547;50.774;12.918;2023-04-06T14:54:14;3.30;;;2.15;;
7013;SDS011;3547;50.774;12.918;2023-04-06T14:56:42;3.10;;;2.40;;
7013;SDS011;3547;50.774;12.918;2023-04-06T14:59:09;2.63;;;1.77;;
7013;SDS011;3547;50.774;12.918;2023-04-06T15:01:38;2.72;;;2.00;;
7013;SDS011;3547;50.774;12.918;2023-04-06T15:04:05;2.17;;;1.98;;
7013;SDS011;3547;50.774;12.918;2023-04-06T15:06:32;4.88;;;2.47;;
7013;SDS011;3547;50.774;12.918;2023-04-06T15:08:58;2.38;;;2.00;;
7013;SDS011;3547;50.774;12.918;2023-04-06T15:11:25;3.70;;;2.70;;
7013;SDS011;3547;50.774;12.918;2023-04-06T15:13:52;5.25;;;2.25;;
7013;SDS011;3547;50.774;12.918;2023-04-06T15:16:18;2.30;;;2.10;;
7013;SDS011;3547;50.774;12.918;2023-04-06T15:18:44;3.80;;;2.25;;
7013;SDS011;3547;50.774;12.918;2023-04-06T15:21:10;3.58;;;2.50;;
7013;SDS011;3547;50.774;12.918;2023-04-06T15:23:37;2.50;;;2.28;;
7013;SDS011;3547;50.774;12.918;2023-04-06T15:26:07;3.30;;;2.33;;
7013;SDS011;3547;50.774;12.918;2023-04-06T15:28:33;2.28;;;2.00;;
7013;SDS011;3547;50.774;12.918;2023-04-06T15:31:01;4.50;;;2.20;;
7013;SDS011;3547;50.774;12.918;2023-04-06T15:33:41;2.20;;;2.00;;
7013;SDS011;3547;50.774;12.918;2023-04-06T15:36:15;2.40;;;2.08;;
7013;SDS011;3547;50.774;12.918;2023-04-06T15:38:54;2.60;;;2.33;;
7013;SDS011;3547;50.774;12.918;2023-04-06T15:41:23;3.55;;;2.85;;
7013;SDS011;3547;50.774;12.918;2023-04-06T15:43:51;2.88;;;2.35;;
7013;SDS011;3547;50.774;12.918;2023-04-06T15:46:19;2.65;;;2.25;;
7013;SDS011;3547;50.774;12.918;2023-04-06T15:48:47;3.15;;;2.35;;
7013;SDS011;3547;50.774;12.918;2023-04-06T15:51:14;2.92;;;2.38;;
7013;SDS011;3547;50.774;12.918;2023-04-06T15:53:42;2.50;;;2.30;;
7013;SDS011;3547;50.774;12.918;2023-04-06T15:56:09;2.78;;;2.05;;
7013;SDS011;3547;50.774;12.918;2023-04-06T15:58:35;2.55;;;2.30;;
7013;SDS011;3547;50.774;12.918;2023-04-06T16:01:14;2.85;;;2.40;;
7013;SDS011;3547;50.774;12.918;2023-04-06T16:06:18;3.10;;;2.42;;
7013;SDS011;3547;50.774;12.918;2023-04-06T16:08:44;2.30;;;2.10;;
7013;SDS011;3547;50.774;12.918;2023-04-06T16:11:11;1.95;;;1.75;;
7013;SDS011;3547;50.774;12.918;2023-04-06T16:13:38;2.20;;;2.00;;
7013;SDS011;3547;50.774;12.918;2023-04-06T16:16:07;3.33;;;2.50;;
7013;SDS011;3547;50.774;12.918;2023-04-06T16:18:34;2.25;;;2.05;;
7013;SDS011;3547;50.774;12.918;2023-04-06T16:21:00;2.30;;;2.10;;
7013;SDS011;3547;50.774;12.918;2023-04-06T16:23:26;4.13;;;2.05;;
7013;SDS011;3547;50.774;12.918;2023-04-06T16:25:52;3.15;;;2.47;;
7013;SDS011;3547;50.774;12.918;2023-04-06T16:28:19;2.92;;;2.15;;